sensor_id;sensor_type;location;lat;lon;timestamp;P1;durP1;ratioP1;P2;durP2;ratioP2
69750;SDS011;57335;52.288;6.056;2024-01-25T00:01:34;16.38;;;2.42;;
69750;SDS011;57335;52.288;6.056;2024-01-25T00:04:01;16.58;;;2.33;;
69750;SDS011;57335;52.288;6.056;2024-01-25T00:06:27;17.90;;;2.53;;
69750;SDS011;57335;52.288;6.056;2024-01-25T00:08:54;16.73;;;3.25;;
69750;SDS011;57335;52.288;6.056;2024-01-25T00:11:21;12.60;;;2.67;;
69750;SDS011;57335;52.288;6.056;2024-01-25T00:13:47;16.95;;;2.45;;
69750;SDS011;57335;52.288;6.056;2024-01-25T00:16:14;16.45;;;2.95;;
69750;SDS011;57335;52.288;6.056;2024-01-25T00:18:40;18.75;;;2.70;;
69750;SDS011;57335;52.288;6.056;2024-01-25T00:21:07;12.35;;;2.50;;
69750;SDS011;57335;52.288;6.056;2024-01-25T00:23:34;14.55;;;2.42;;
69750;SDS011;57335;52.288;6.056;2024-01-25T00:26:00;25.10;;;3.58;;
69750;SDS011;57335;52.288;6.056;2024-01-25T00:28:27;19.85;;;2.72;;
69750;SDS011;57335;52.288;6.056;2024-01-25T00:30:54;15.48;;;2.15;;
69750;SDS011;57335;52.288;6.056;2024-01-25T00:33:21;14.18;;;2.35;;
69750;SDS011;57335;52.288;6.056;2024-01-25T00:35:48;16.63;;;2.58;;
69750;SDS011;57335;52.288;6.056;2024-01-25T00:38:15;14.88;;;2.20;;
69750;SDS011;57335;52.288;6.056;2024-01-25T00:40:42;16.95;;;2.80;;
69750;SDS011;57335;52.288;6.056;2024-01-25T00:43:09;20.50;;;2.75;;
69750;SDS011;57335;52.288;6.056;2024-01-25T00:45:36;17.88;;;2.78;;
69750;SDS011;57335;52.288;6.056;2024-01-25T00:48:03;19.70;;;2.67;;
69750;SDS011;57335;52.288;6.056;2024-01-25T00:50:30;16.92;;;2.50;;
69750;SDS011;57335;52.288;6.056;2024-01-25T00:52:57;19.20;;;3.28;;
69750;SDS011;57335;52.288;6.056;2024-01-25T00:55:24;18.15;;;3.17;;
69750;SDS011;57335;52.288;6.056;2024-01-25T00:57:51;17.17;;;2.78;;
69750;SDS011;57335;52.288;6.056;2024-01-25T01:00:18;18.85;;;3.20;;
69750;SDS011;57335;52.288;6.056;2024-01-25T01:02:45;17.63;;;2.60;;
69750;SDS011;57335;52.288;6.056;2024-01-25T01:05:13;26.40;;;3.15;;
69750;SDS011;57335;52.288;6.056;2024-01-25T01:07:41;22.02;;;2.72;;
69750;SDS011;57335;52.288;6.056;2024-01-25T01:10:08;17.30;;;2.90;;
69750;SDS011;57335;52.288;6.056;2024-01-25T01:12:36;24.85;;;3.45;;
69750;SDS011;57335;52.288;6.056;2024-01-25T01:15:03;16.88;;;2.70;;
69750;SDS011;57335;52.288;6.056;2024-01-25T01:17:30;18.15;;;2.95;;
69750;SDS011;57335;52.288;6.056;2024-01-25T01:19:57;20.80;;;2.83;;
69750;SDS011;57335;52.288;6.056;2024-01-25T01:22:24;19.73;;;2.45;;
69750;SDS011;57335;52.288;6.056;2024-01-25T01:24:51;14.63;;;2.90;;
69750;SDS011;57335;52.288;6.056;2024-01-25T01:27:17;20.48;;;2.80;;
69750;SDS011;57335;52.288;6.056;2024-01-25T01:29:44;21.42;;;2.67;;
69750;SDS011;57335;52.288;6.056;2024-01-25T01:32:11;19.42;;;2.92;;
69750;SDS011;57335;52.288;6.056;2024-01-25T01:34:37;20.23;;;2.72;;
69750;SDS011;57335;52.288;6.056;2024-01-25T01:37:04;22.98;;;2.90;;
69750;SDS011;57335;52.288;6.056;2024-01-25T01:39:31;19.10;;;2.95;;
69750;SDS011;57335;52.288;6.056;2024-01-25T01:41:58;17.60;;;2.92;;
69750;SDS011;57335;52.288;6.056;2024-01-25T01:44:24;23.80;;;3.10;;
69750;SDS011;57335;52.288;6.056;2024-01-25T01:46:51;14.80;;;2.80;;
69750;SDS011;57335;52.288;6.056;2024-01-25T01:49:17;17.02;;;2.65;;
69750;SDS011;57335;52.288;6.056;2024-01-25T01:51:45;14.38;;;2.47;;
69750;SDS011;57335;52.288;6.056;2024-01-25T01:54:12;20.50;;;2.85;;
69750;SDS011;57335;52.288;6.056;2024-01-25T01:56:39;16.38;;;3.20;;
69750;SDS011;57335;52.288;6.056;2024-01-25T01:59:09;16.70;;;2.30;;
69750;SDS011;57335;52.288;6.056;2024-01-25T02:01:37;17.90;;;2.90;;
69750;SDS011;57335;52.288;6.056;2024-01-25T02:04:04;17.83;;;3.10;;
69750;SDS011;57335;52.288;6.056;2024-01-25T02:06:31;13.95;;;2.28;;
69750;SDS011;57335;52.288;6.056;2024-01-25T02:08:58;22.73;;;3.13;;
69750;SDS011;57335;52.288;6.056;2024-01-25T02:11:25;21.20;;;2.85;;
69750;SDS011;57335;52.288;6.056;2024-01-25T02:13:52;19.10;;;2.83;;
69750;SDS011;57335;52.288;6.056;2024-01-25T02:16:19;16.08;;;2.47;;
69750;SDS011;57335;52.288;6.056;2024-01-25T02:18:46;22.00;;;2.92;;
69750;SDS011;57335;52.288;6.056;2024-01-25T02:21:14;24.65;;;3.22;;
69750;SDS011;57335;52.288;6.056;2024-01-25T02:23:41;14.50;;;2.78;;
69750;SDS011;57335;52.288;6.056;2024-01-25T02:26:08;16.75;;;2.63;;
69750;SDS011;57335;52.288;6.056;2024-01-25T02:28:34;17.77;;;3.25;;
69750;SDS011;57335;52.288;6.056;2024-01-25T02:31:01;20.42;;;3.10;;
69750;SDS011;57335;52.288;6.056;2024-01-25T02:33:29;19.00;;;2.40;;
69750;SDS011;57335;52.288;6.056;2024-01-25T02:35:57;19.23;;;3.28;;
69750;SDS011;57335;52.288;6.056;2024-01-25T02:38:24;20.40;;;3.13;;
69750;SDS011;57335;52.288;6.056;2024-01-25T02:40:50;21.20;;;2.38;;
69750;SDS011;57335;52.288;6.056;2024-01-25T02:43:17;21.92;;;3.20;;
69750;SDS011;57335;52.288;6.056;2024-01-25T02:45:44;16.40;;;3.05;;
69750;SDS011;57335;52.288;6.056;2024-01-25T02:48:11;24.38;;;3.25;;
69750;SDS011;57335;52.288;6.056;2024-01-25T02:50:37;18.52;;;2.72;;
69750;SDS011;57335;52.288;6.056;2024-01-25T02:53:04;19.55;;;3.15;;
69750;SDS011;57335;52.288;6.056;2024-01-25T02:55:31;14.38;;;2.17;;
69750;SDS011;57335;52.288;6.056;2024-01-25T02:57:58;19.60;;;3.00;;
69750;SDS011;57335;52.288;6.056;2024-01-25T03:00:24;17.40;;;2.80;;
69750;SDS011;57335;52.288;6.056;2024-01-25T03:02:51;17.35;;;2.90;;
69750;SDS011;57335;52.288;6.056;2024-01-25T03:05:18;17.05;;;2.50;;
69750;SDS011;57335;52.288;6.056;2024-01-25T03:07:45;32.67;;;3.38;;
69750;SDS011;57335;52.288;6.056;2024-01-25T03:10:12;22.17;;;3.65;;
69750;SDS011;57335;52.288;6.056;2024-01-25T03:12:40;16.70;;;2.85;;
69750;SDS011;57335;52.288;6.056;2024-01-25T03:15:07;19.48;;;2.47;;
69750;SDS011;57335;52.288;6.056;2024-01-25T03:17:34;18.50;;;2.92;;
69750;SDS011;57335;52.288;6.056;2024-01-25T03:20:00;14.85;;;2.50;;
69750;SDS011;57335;52.288;6.056;2024-01-25T03:22:28;23.08;;;2.92;;
69750;SDS011;57335;52.288;6.056;2024-01-25T03:24:54;21.83;;;4.00;;
69750;SDS011;57335;52.288;6.056;2024-01-25T03:27:21;20.10;;;3.05;;
69750;SDS011;57335;52.288;6.056;2024-01-25T03:29:47;18.52;;;2.70;;
69750;SDS011;57335;52.288;6.056;2024-01-25T03:32:14;17.95;;;2.53;;
69750;SDS011;57335;52.288;6.056;2024-01-25T03:34:41;17.92;;;2.88;;
69750;SDS011;57335;52.288;6.056;2024-01-25T03:37:08;18.13;;;2.55;;
69750;SDS011;57335;52.288;6.056;2024-01-25T03:39:34;16.60;;;2.70;;
69750;SDS011;57335;52.288;6.056;2024-01-25T03:42:01;20.23;;;2.92;;
69750;SDS011;57335;52.288;6.056;2024-01-25T03:44:28;17.25;;;3.05;;
69750;SDS011;57335;52.288;6.056;2024-01-25T03:46:54;15.60;;;2.20;;
69750;SDS011;57335;52.288;6.056;2024-01-25T03:49:21;18.08;;;3.10;;
69750;SDS011;57335;52.288;6.056;2024-01-25T03:51:49;17.35;;;2.90;;
69750;SDS011;57335;52.288;6.056;2024-01-25T03:54:16;18.92;;;3.28;;
69750;SDS011;57335;52.288;6.056;2024-01-25T03:56:43;20.25;;;3.38;;
69750;SDS011;57335;52.288;6.056;2024-01-25T03:59:10;22.38;;;3.22;;
69750;SDS011;57335;52.288;6.056;2024-01-25T04:01:45;20.60;;;3.17;;
69750;SDS011;57335;52.288;6.056;2024-01-25T04:04:13;16.58;;;2.42;;
69750;SDS011;57335;52.288;6.056;2024-01-25T04:06:42;17.88;;;3.30;;
69750;SDS011;57335;52.288;6.056;2024-01-25T04:09:09;18.17;;;2.67;;
69750;SDS011;57335;52.288;6.056;2024-01-25T04:11:36;19.90;;;2.90;;
69750;SDS011;57335;52.288;6.056;2024-01-25T04:14:04;18.50;;;3.65;;
69750;SDS011;57335;52.288;6.056;2024-01-25T04:16:32;17.88;;;2.85;;
69750;SDS011;57335;52.288;6.056;2024-01-25T04:19:00;19.42;;;3.25;;
69750;SDS011;57335;52.288;6.056;2024-01-25T04:21:27;15.88;;;3.15;;
69750;SDS011;57335;52.288;6.056;2024-01-25T04:23:54;25.95;;;3.67;;
69750;SDS011;57335;52.288;6.056;2024-01-25T04:28:47;21.10;;;3.13;;
69750;SDS011;57335;52.288;6.056;2024-01-25T04:31:13;26.70;;;2.95;;
69750;SDS011;57335;52.288;6.056;2024-01-25T04:33:40;26.60;;;3.38;;
69750;SDS011;57335;52.288;6.056;2024-01-25T04:36:13;24.67;;;3.53;;
69750;SDS011;57335;52.288;6.056;2024-01-25T04:38:40;18.70;;;3.22;;
69750;SDS011;57335;52.288;6.056;2024-01-25T04:41:07;19.52;;;3.05;;
69750;SDS011;57335;52.288;6.056;2024-01-25T04:43:34;17.20;;;3.15;;
69750;SDS011;57335;52.288;6.056;2024-01-25T04:46:02;21.23;;;3.53;;
69750;SDS011;57335;52.288;6.056;2024-01-25T04:48:30;26.92;;;3.67;;
69750;SDS011;57335;52.288;6.056;2024-01-25T04:50:57;22.00;;;3.55;;
69750;SDS011;57335;52.288;6.056;2024-01-25T04:53:26;27.10;;;3.78;;
69750;SDS011;57335;52.288;6.056;2024-01-25T04:55:54;22.77;;;3.28;;
69750;SDS011;57335;52.288;6.056;2024-01-25T04:58:21;20.23;;;3.47;;
69750;SDS011;57335;52.288;6.056;2024-01-25T05:00:48;16.95;;;3.10;;
69750;SDS011;57335;52.288;6.056;2024-01-25T05:03:17;24.45;;;3.90;;
69750;SDS011;57335;52.288;6.056;2024-01-25T05:05:43;13.35;;;2.67;;
69750;SDS011;57335;52.288;6.056;2024-01-25T05:08:10;26.17;;;3.03;;
69750;SDS011;57335;52.288;6.056;2024-01-25T05:10:36;18.90;;;3.30;;
69750;SDS011;57335;52.288;6.056;2024-01-25T05:13:03;16.00;;;2.58;;
69750;SDS011;57335;52.288;6.056;2024-01-25T05:15:30;18.08;;;3.08;;
69750;SDS011;57335;52.288;6.056;2024-01-25T05:17:57;13.63;;;2.70;;
69750;SDS011;57335;52.288;6.056;2024-01-25T05:20:23;19.98;;;2.60;;
69750;SDS011;57335;52.288;6.056;2024-01-25T05:22:55;18.50;;;3.20;;
69750;SDS011;57335;52.288;6.056;2024-01-25T05:27:48;17.65;;;3.60;;
69750;SDS011;57335;52.288;6.056;2024-01-25T05:30:15;18.38;;;3.30;;
69750;SDS011;57335;52.288;6.056;2024-01-25T05:32:42;16.77;;;3.58;;
69750;SDS011;57335;52.288;6.056;2024-01-25T05:35:08;22.48;;;3.47;;
69750;SDS011;57335;52.288;6.056;2024-01-25T05:37:36;17.98;;;3.63;;
69750;SDS011;57335;52.288;6.056;2024-01-25T05:40:02;17.05;;;2.85;;
69750;SDS011;57335;52.288;6.056;2024-01-25T05:42:29;15.80;;;3.25;;
69750;SDS011;57335;52.288;6.056;2024-01-25T05:44:56;17.70;;;3.20;;
69750;SDS011;57335;52.288;6.056;2024-01-25T05:49:49;22.20;;;3.47;;
69750;SDS011;57335;52.288;6.056;2024-01-25T05:52:16;23.10;;;3.72;;
69750;SDS011;57335;52.288;6.056;2024-01-25T05:54:43;19.45;;;3.63;;
69750;SDS011;57335;52.288;6.056;2024-01-25T05:57:10;14.32;;;3.05;;
69750;SDS011;57335;52.288;6.056;2024-01-25T05:59:36;18.92;;;3.40;;
69750;SDS011;57335;52.288;6.056;2024-01-25T06:02:03;20.17;;;3.33;;
69750;SDS011;57335;52.288;6.056;2024-01-25T06:04:32;19.85;;;3.80;;
69750;SDS011;57335;52.288;6.056;2024-01-25T06:06:58;20.27;;;4.22;;
69750;SDS011;57335;52.288;6.056;2024-01-25T06:09:25;20.40;;;3.75;;
69750;SDS011;57335;52.288;6.056;2024-01-25T06:11:52;18.65;;;3.55;;
69750;SDS011;57335;52.288;6.056;2024-01-25T06:14:19;22.55;;;3.63;;
69750;SDS011;57335;52.288;6.056;2024-01-25T06:16:45;21.63;;;3.35;;
69750;SDS011;57335;52.288;6.056;2024-01-25T06:19:12;20.55;;;3.97;;
69750;SDS011;57335;52.288;6.056;2024-01-25T06:21:39;17.02;;;3.08;;
69750;SDS011;57335;52.288;6.056;2024-01-25T06:24:05;20.75;;;3.72;;
69750;SDS011;57335;52.288;6.056;2024-01-25T06:26:32;19.60;;;3.15;;
69750;SDS011;57335;52.288;6.056;2024-01-25T06:28:59;20.67;;;3.65;;
69750;SDS011;57335;52.288;6.056;2024-01-25T06:31:26;19.33;;;3.47;;
69750;SDS011;57335;52.288;6.056;2024-01-25T06:33:53;19.98;;;3.20;;
69750;SDS011;57335;52.288;6.056;2024-01-25T06:36:20;22.27;;;3.40;;
69750;SDS011;57335;52.288;6.056;2024-01-25T06:38:46;19.83;;;3.42;;
69750;SDS011;57335;52.288;6.056;2024-01-25T06:41:13;19.55;;;3.45;;
69750;SDS011;57335;52.288;6.056;2024-01-25T06:43:41;24.30;;;3.67;;
69750;SDS011;57335;52.288;6.056;2024-01-25T06:46:07;27.67;;;3.88;;
69750;SDS011;57335;52.288;6.056;2024-01-25T06:48:34;21.13;;;2.88;;
69750;SDS011;57335;52.288;6.056;2024-01-25T06:51:02;22.02;;;3.60;;
69750;SDS011;57335;52.288;6.056;2024-01-25T06:53:29;23.10;;;3.95;;
69750;SDS011;57335;52.288;6.056;2024-01-25T06:55:55;21.42;;;3.70;;
69750;SDS011;57335;52.288;6.056;2024-01-25T06:58:22;16.45;;;3.67;;
69750;SDS011;57335;52.288;6.056;2024-01-25T07:00:49;25.70;;;3.58;;
69750;SDS011;57335;52.288;6.056;2024-01-25T07:03:16;35.75;;;4.18;;
69750;SDS011;57335;52.288;6.056;2024-01-25T07:05:44;23.88;;;3.60;;
69750;SDS011;57335;52.288;6.056;2024-01-25T07:08:10;21.00;;;3.10;;
69750;SDS011;57335;52.288;6.056;2024-01-25T07:10:40;22.40;;;4.30;;
69750;SDS011;57335;52.288;6.056;2024-01-25T07:13:07;18.88;;;3.40;;
69750;SDS011;57335;52.288;6.056;2024-01-25T07:15:33;22.67;;;4.78;;
69750;SDS011;57335;52.288;6.056;2024-01-25T07:18:01;20.73;;;4.22;;
69750;SDS011;57335;52.288;6.056;2024-01-25T07:20:28;22.05;;;3.88;;
69750;SDS011;57335;52.288;6.056;2024-01-25T07:22:55;30.05;;;3.72;;
69750;SDS011;57335;52.288;6.056;2024-01-25T07:25:22;30.25;;;3.67;;
69750;SDS011;57335;52.288;6.056;2024-01-25T07:27:49;22.00;;;3.78;;
69750;SDS011;57335;52.288;6.056;2024-01-25T07:30:16;27.60;;;3.67;;
69750;SDS011;57335;52.288;6.056;2024-01-25T07:32:43;32.03;;;4.13;;
69750;SDS011;57335;52.288;6.056;2024-01-25T07:35:12;22.75;;;4.10;;
69750;SDS011;57335;52.288;6.056;2024-01-25T07:37:39;24.45;;;3.78;;
69750;SDS011;57335;52.288;6.056;2024-01-25T07:40:08;19.98;;;3.85;;
69750;SDS011;57335;52.288;6.056;2024-01-25T07:42:35;25.02;;;4.43;;
69750;SDS011;57335;52.288;6.056;2024-01-25T07:45:02;20.60;;;4.18;;
69750;SDS011;57335;52.288;6.056;2024-01-25T07:47:29;24.73;;;4.35;;
69750;SDS011;57335;52.288;6.056;2024-01-25T07:49:56;23.30;;;4.40;;
69750;SDS011;57335;52.288;6.056;2024-01-25T07:52:23;26.90;;;4.50;;
69750;SDS011;57335;52.288;6.056;2024-01-25T07:54:52;26.02;;;4.57;;
69750;SDS011;57335;52.288;6.056;2024-01-25T07:57:20;25.17;;;3.92;;
69750;SDS011;57335;52.288;6.056;2024-01-25T07:59:46;34.10;;;4.38;;
69750;SDS011;57335;52.288;6.056;2024-01-25T08:02:13;21.58;;;4.30;;
69750;SDS011;57335;52.288;6.056;2024-01-25T08:04:42;21.92;;;3.78;;
69750;SDS011;57335;52.288;6.056;2024-01-25T08:07:09;17.65;;;3.70;;
69750;SDS011;57335;52.288;6.056;2024-01-25T08:09:37;22.70;;;3.70;;
69750;SDS011;57335;52.288;6.056;2024-01-25T08:12:03;17.25;;;3.42;;
69750;SDS011;57335;52.288;6.056;2024-01-25T08:14:30;21.38;;;4.32;;
69750;SDS011;57335;52.288;6.056;2024-01-25T08:16:58;23.05;;;4.68;;
69750;SDS011;57335;52.288;6.056;2024-01-25T08:19:24;27.52;;;4.30;;
69750;SDS011;57335;52.288;6.056;2024-01-25T08:21:52;23.23;;;3.97;;
69750;SDS011;57335;52.288;6.056;2024-01-25T08:24:18;23.17;;;4.32;;
69750;SDS011;57335;52.288;6.056;2024-01-25T08:26:45;20.73;;;3.80;;
69750;SDS011;57335;52.288;6.056;2024-01-25T08:29:11;17.42;;;3.92;;
69750;SDS011;57335;52.288;6.056;2024-01-25T08:31:38;20.45;;;4.15;;
69750;SDS011;57335;52.288;6.056;2024-01-25T08:34:05;23.70;;;4.15;;
69750;SDS011;57335;52.288;6.056;2024-01-25T08:36:32;23.92;;;4.75;;
69750;SDS011;57335;52.288;6.056;2024-01-25T08:38:59;22.88;;;3.80;;
69750;SDS011;57335;52.288;6.056;2024-01-25T08:41:25;28.70;;;4.85;;
69750;SDS011;57335;52.288;6.056;2024-01-25T08:43:52;14.52;;;3.70;;
69750;SDS011;57335;52.288;6.056;2024-01-25T08:46:18;24.73;;;4.40;;
69750;SDS011;57335;52.288;6.056;2024-01-25T08:48:45;22.40;;;4.60;;
69750;SDS011;57335;52.288;6.056;2024-01-25T08:51:12;18.33;;;4.25;;
69750;SDS011;57335;52.288;6.056;2024-01-25T08:53:39;22.38;;;4.85;;
69750;SDS011;57335;52.288;6.056;2024-01-25T08:56:05;25.23;;;5.07;;
69750;SDS011;57335;52.288;6.056;2024-01-25T08:58:32;30.88;;;4.35;;
69750;SDS011;57335;52.288;6.056;2024-01-25T09:00:59;18.40;;;3.55;;
69750;SDS011;57335;52.288;6.056;2024-01-25T09:03:26;25.23;;;4.85;;
69750;SDS011;57335;52.288;6.056;2024-01-25T09:05:52;18.10;;;4.50;;
69750;SDS011;57335;52.288;6.056;2024-01-25T09:08:19;23.48;;;4.72;;
69750;SDS011;57335;52.288;6.056;2024-01-25T09:10:46;27.30;;;4.38;;
69750;SDS011;57335;52.288;6.056;2024-01-25T09:13:13;24.75;;;4.10;;
69750;SDS011;57335;52.288;6.056;2024-01-25T09:15:40;22.35;;;4.72;;
69750;SDS011;57335;52.288;6.056;2024-01-25T09:18:06;20.83;;;4.50;;
69750;SDS011;57335;52.288;6.056;2024-01-25T09:20:33;24.70;;;5.03;;
69750;SDS011;57335;52.288;6.056;2024-01-25T09:23:00;23.00;;;5.22;;
69750;SDS011;57335;52.288;6.056;2024-01-25T09:25:26;25.10;;;5.75;;
69750;SDS011;57335;52.288;6.056;2024-01-25T09:27:53;27.65;;;5.00;;
69750;SDS011;57335;52.288;6.056;2024-01-25T09:30:22;19.15;;;4.18;;
69750;SDS011;57335;52.288;6.056;2024-01-25T09:32:49;22.13;;;4.88;;
69750;SDS011;57335;52.288;6.056;2024-01-25T09:35:16;19.40;;;4.20;;
69750;SDS011;57335;52.288;6.056;2024-01-25T09:37:43;31.05;;;5.70;;
69750;SDS011;57335;52.288;6.056;2024-01-25T09:40:10;27.88;;;5.78;;
69750;SDS011;57335;52.288;6.056;2024-01-25T09:42:37;25.50;;;4.38;;
69750;SDS011;57335;52.288;6.056;2024-01-25T09:45:06;20.33;;;4.72;;
69750;SDS011;57335;52.288;6.056;2024-01-25T09:47:34;19.70;;;4.55;;
69750;SDS011;57335;52.288;6.056;2024-01-25T09:50:01;20.75;;;5.05;;
69750;SDS011;57335;52.288;6.056;2024-01-25T09:52:28;22.15;;;5.40;;
69750;SDS011;57335;52.288;6.056;2024-01-25T09:54:56;26.58;;;5.40;;
69750;SDS011;57335;52.288;6.056;2024-01-25T09:57:24;23.45;;;5.30;;
69750;SDS011;57335;52.288;6.056;2024-01-25T09:59:54;24.23;;;5.28;;
69750;SDS011;57335;52.288;6.056;2024-01-25T10:02:21;27.00;;;5.20;;
69750;SDS011;57335;52.288;6.056;2024-01-25T10:04:51;22.95;;;4.95;;
69750;SDS011;57335;52.288;6.056;2024-01-25T10:10:05;28.30;;;5.82;;
69750;SDS011;57335;52.288;6.056;2024-01-25T10:12:32;23.65;;;5.35;;
69750;SDS011;57335;52.288;6.056;2024-01-25T10:14:59;21.02;;;5.05;;
69750;SDS011;57335;52.288;6.056;2024-01-25T10:17:27;27.80;;;5.45;;
69750;SDS011;57335;52.288;6.056;2024-01-25T10:20:14;29.30;;;5.50;;
69750;SDS011;57335;52.288;6.056;2024-01-25T10:22:43;28.23;;;5.15;;
69750;SDS011;57335;52.288;6.056;2024-01-25T10:25:13;26.98;;;5.22;;
69750;SDS011;57335;52.288;6.056;2024-01-25T10:27:40;24.58;;;5.20;;
69750;SDS011;57335;52.288;6.056;2024-01-25T10:30:09;28.33;;;4.75;;
69750;SDS011;57335;52.288;6.056;2024-01-25T10:32:36;20.33;;;4.55;;
69750;SDS011;57335;52.288;6.056;2024-01-25T10:35:03;26.70;;;4.63;;
69750;SDS011;57335;52.288;6.056;2024-01-25T10:37:31;25.15;;;4.70;;
69750;SDS011;57335;52.288;6.056;2024-01-25T10:39:59;20.08;;;4.03;;
69750;SDS011;57335;52.288;6.056;2024-01-25T10:42:27;23.95;;;5.53;;
69750;SDS011;57335;52.288;6.056;2024-01-25T10:44:53;23.58;;;4.80;;
69750;SDS011;57335;52.288;6.056;2024-01-25T10:47:20;23.98;;;4.80;;
69750;SDS011;57335;52.288;6.056;2024-01-25T10:49:47;17.20;;;4.35;;
69750;SDS011;57335;52.288;6.056;2024-01-25T10:52:15;26.60;;;5.30;;
69750;SDS011;57335;52.288;6.056;2024-01-25T10:54:42;21.70;;;4.88;;
69750;SDS011;57335;52.288;6.056;2024-01-25T10:57:09;26.65;;;5.28;;
69750;SDS011;57335;52.288;6.056;2024-01-25T10:59:36;26.58;;;4.32;;
69750;SDS011;57335;52.288;6.056;2024-01-25T11:02:03;17.00;;;4.45;;
69750;SDS011;57335;52.288;6.056;2024-01-25T11:04:30;26.35;;;4.90;;
69750;SDS011;57335;52.288;6.056;2024-01-25T11:07:04;24.55;;;4.78;;
69750;SDS011;57335;52.288;6.056;2024-01-25T11:09:33;27.90;;;5.35;;
69750;SDS011;57335;52.288;6.056;2024-01-25T11:12:01;22.15;;;4.25;;
69750;SDS011;57335;52.288;6.056;2024-01-25T11:14:28;25.20;;;4.68;;
69750;SDS011;57335;52.288;6.056;2024-01-25T11:16:54;20.63;;;4.82;;
69750;SDS011;57335;52.288;6.056;2024-01-25T11:19:21;18.67;;;4.53;;
69750;SDS011;57335;52.288;6.056;2024-01-25T11:21:49;22.33;;;5.00;;
69750;SDS011;57335;52.288;6.056;2024-01-25T11:24:21;21.42;;;4.60;;
69750;SDS011;57335;52.288;6.056;2024-01-25T11:26:53;26.08;;;4.47;;
69750;SDS011;57335;52.288;6.056;2024-01-25T11:29:21;27.17;;;5.20;;
69750;SDS011;57335;52.288;6.056;2024-01-25T11:31:49;24.40;;;4.10;;
69750;SDS011;57335;52.288;6.056;2024-01-25T11:34:17;21.38;;;4.63;;
69750;SDS011;57335;52.288;6.056;2024-01-25T11:36:44;21.90;;;4.57;;
69750;SDS011;57335;52.288;6.056;2024-01-25T11:39:12;23.83;;;4.53;;
69750;SDS011;57335;52.288;6.056;2024-01-25T11:41:39;23.27;;;4.45;;
69750;SDS011;57335;52.288;6.056;2024-01-25T11:44:06;17.20;;;3.80;;
69750;SDS011;57335;52.288;6.056;2024-01-25T11:46:32;19.65;;;4.03;;
69750;SDS011;57335;52.288;6.056;2024-01-25T11:49:03;21.33;;;4.57;;
69750;SDS011;57335;52.288;6.056;2024-01-25T11:51:30;24.73;;;4.50;;
69750;SDS011;57335;52.288;6.056;2024-01-25T11:53:57;23.33;;;5.22;;
69750;SDS011;57335;52.288;6.056;2024-01-25T11:56:24;22.33;;;5.35;;
69750;SDS011;57335;52.288;6.056;2024-01-25T11:58:54;25.65;;;3.78;;
69750;SDS011;57335;52.288;6.056;2024-01-25T12:01:24;19.80;;;3.25;;
69750;SDS011;57335;52.288;6.056;2024-01-25T12:03:52;21.65;;;4.18;;
69750;SDS011;57335;52.288;6.056;2024-01-25T12:06:20;18.90;;;4.22;;
69750;SDS011;57335;52.288;6.056;2024-01-25T12:08:47;16.23;;;3.20;;
69750;SDS011;57335;52.288;6.056;2024-01-25T12:11:15;20.90;;;3.35;;
69750;SDS011;57335;52.288;6.056;2024-01-25T12:13:42;21.45;;;4.30;;
69750;SDS011;57335;52.288;6.056;2024-01-25T12:16:10;20.02;;;3.67;;
69750;SDS011;57335;52.288;6.056;2024-01-25T12:18:38;25.75;;;4.25;;
69750;SDS011;57335;52.288;6.056;2024-01-25T12:21:06;23.08;;;4.43;;
69750;SDS011;57335;52.288;6.056;2024-01-25T12:23:37;20.38;;;4.18;;
69750;SDS011;57335;52.288;6.056;2024-01-25T12:26:08;19.42;;;3.95;;
69750;SDS011;57335;52.288;6.056;2024-01-25T12:28:37;21.27;;;4.18;;
69750;SDS011;57335;52.288;6.056;2024-01-25T12:31:04;19.65;;;3.90;;
69750;SDS011;57335;52.288;6.056;2024-01-25T12:33:33;23.23;;;4.28;;
69750;SDS011;57335;52.288;6.056;2024-01-25T12:36:03;20.92;;;4.53;;
69750;SDS011;57335;52.288;6.056;2024-01-25T12:38:31;21.83;;;3.92;;
69750;SDS011;57335;52.288;6.056;2024-01-25T12:41:00;16.40;;;3.10;;
69750;SDS011;57335;52.288;6.056;2024-01-25T12:43:28;17.73;;;3.58;;
69750;SDS011;57335;52.288;6.056;2024-01-25T12:45:56;17.73;;;3.22;;
69750;SDS011;57335;52.288;6.056;2024-01-25T12:48:31;20.52;;;3.88;;
69750;SDS011;57335;52.288;6.056;2024-01-25T12:50:58;22.30;;;4.03;;
69750;SDS011;57335;52.288;6.056;2024-01-25T12:53:24;19.10;;;3.80;;
69750;SDS011;57335;52.288;6.056;2024-01-25T12:55:52;17.77;;;3.50;;
69750;SDS011;57335;52.288;6.056;2024-01-25T12:58:19;17.85;;;3.38;;
69750;SDS011;57335;52.288;6.056;2024-01-25T13:00:46;17.95;;;4.03;;
69750;SDS011;57335;52.288;6.056;2024-01-25T13:03:13;16.90;;;3.00;;
69750;SDS011;57335;52.288;6.056;2024-01-25T13:05:40;22.55;;;4.60;;
69750;SDS011;57335;52.288;6.056;2024-01-25T13:08:07;13.90;;;3.08;;
69750;SDS011;57335;52.288;6.056;2024-01-25T13:10:34;24.83;;;3.58;;
69750;SDS011;57335;52.288;6.056;2024-01-25T13:13:01;15.77;;;3.25;;
69750;SDS011;57335;52.288;6.056;2024-01-25T13:15:28;19.83;;;4.20;;
69750;SDS011;57335;52.288;6.056;2024-01-25T13:17:56;15.85;;;2.38;;
69750;SDS011;57335;52.288;6.056;2024-01-25T13:20:23;20.40;;;3.53;;
69750;SDS011;57335;52.288;6.056;2024-01-25T13:22:49;16.73;;;3.03;;
69750;SDS011;57335;52.288;6.056;2024-01-25T13:25:16;17.30;;;3.05;;
69750;SDS011;57335;52.288;6.056;2024-01-25T13:27:43;20.10;;;3.58;;
69750;SDS011;57335;52.288;6.056;2024-01-25T13:30:10;19.73;;;3.22;;
69750;SDS011;57335;52.288;6.056;2024-01-25T13:32:38;18.92;;;3.13;;
69750;SDS011;57335;52.288;6.056;2024-01-25T13:35:05;16.00;;;2.90;;
69750;SDS011;57335;52.288;6.056;2024-01-25T13:37:32;17.17;;;3.25;;
69750;SDS011;57335;52.288;6.056;2024-01-25T13:39:59;16.40;;;2.88;;
69750;SDS011;57335;52.288;6.056;2024-01-25T13:42:25;15.20;;;2.88;;
69750;SDS011;57335;52.288;6.056;2024-01-25T13:44:52;13.13;;;2.78;;
69750;SDS011;57335;52.288;6.056;2024-01-25T13:47:18;18.77;;;3.15;;
69750;SDS011;57335;52.288;6.056;2024-01-25T13:49:45;17.58;;;3.00;;
69750;SDS011;57335;52.288;6.056;2024-01-25T13:52:16;22.73;;;3.10;;
69750;SDS011;57335;52.288;6.056;2024-01-25T13:54:47;16.75;;;3.05;;
69750;SDS011;57335;52.288;6.056;2024-01-25T13:57:17;15.18;;;2.75;;
69750;SDS011;57335;52.288;6.056;2024-01-25T13:59:46;18.73;;;2.97;;
69750;SDS011;57335;52.288;6.056;2024-01-25T14:02:13;18.38;;;3.25;;
69750;SDS011;57335;52.288;6.056;2024-01-25T14:04:39;17.63;;;2.72;;
69750;SDS011;57335;52.288;6.056;2024-01-25T14:07:07;16.67;;;3.38;;
69750;SDS011;57335;52.288;6.056;2024-01-25T14:09:34;15.45;;;2.75;;
69750;SDS011;57335;52.288;6.056;2024-01-25T14:12:01;18.70;;;3.72;;
69750;SDS011;57335;52.288;6.056;2024-01-25T14:14:27;18.23;;;2.45;;
69750;SDS011;57335;52.288;6.056;2024-01-25T14:16:54;16.83;;;2.88;;
69750;SDS011;57335;52.288;6.056;2024-01-25T14:19:21;16.02;;;2.83;;
69750;SDS011;57335;52.288;6.056;2024-01-25T14:21:48;19.08;;;3.60;;
69750;SDS011;57335;52.288;6.056;2024-01-25T14:24:36;21.15;;;3.47;;
69750;SDS011;57335;52.288;6.056;2024-01-25T14:27:03;19.10;;;3.47;;
69750;SDS011;57335;52.288;6.056;2024-01-25T14:29:30;19.23;;;3.63;;
69750;SDS011;57335;52.288;6.056;2024-01-25T14:32:00;21.33;;;3.55;;
69750;SDS011;57335;52.288;6.056;2024-01-25T14:34:26;20.02;;;3.63;;
69750;SDS011;57335;52.288;6.056;2024-01-25T14:36:53;15.82;;;3.28;;
69750;SDS011;57335;52.288;6.056;2024-01-25T14:39:20;16.98;;;3.65;;
69750;SDS011;57335;52.288;6.056;2024-01-25T14:41:47;24.33;;;3.90;;
69750;SDS011;57335;52.288;6.056;2024-01-25T14:44:13;26.33;;;4.13;;